Time;durP1;ratioP1;P1;durP2;ratioP2;P2;SDS_P1;SDS_P2;PMS_P1;PMS_P2;Temp;Humidity;BMP_temperature;BMP_pressure;BME280_temperature;BME280_humidity;BME280_pressure;Samples;Min_cycle;Max_cycle;Signal;HPM_P1;HPM_P2
2021/10/20 00:01:02;;;;;;;9.85;7.68;;;;;;;12.69;100.00;100545.94;5083272;28;20062;-83
2021/10/20 00:03:28;;;;;;;9.63;7.35;;;;;;;12.80;100.00;100546.59;5082961;28;20616;-82
2021/10/20 00:05:57;;;;;;;7.93;6.88;;;;;;;12.97;100.00;100545.38;5103256;27;20155;-85
2021/10/20 00:08:24;;;;;;;8.38;6.45;;;;;;;13.09;100.00;100539.88;5099048;28;20493;-83
2021/10/20 00:10:51;;;;;;;7.97;6.47;;;;;;;13.23;100.00;100532.56;5097983;28;20044;-85
2021/10/20 00:13:18;;;;;;;7.20;6.45;;;;;;;13.42;100.00;100539.22;5098766;28;21277;-81
2021/10/20 00:15:46;;;;;;;6.22;5.63;;;;;;;13.51;100.00;100525.84;5088223;27;20048;-86
2021/10/20 00:18:13;;;;;;;5.53;5.00;;;;;;;13.57;100.00;100534.44;5131283;27;20554;-82
2021/10/20 00:20:40;;;;;;;6.88;5.65;;;;;;;13.61;100.00;100523.84;5101357;27;20401;-83
2021/10/20 00:23:08;;;;;;;5.53;5.03;;;;;;;13.62;100.00;100515.91;5114677;27;20043;-87
2021/10/20 00:25:35;;;;;;;5.82;5.00;;;;;;;13.69;100.00;100522.78;5110275;27;20687;-84
2021/10/20 00:28:01;;;;;;;7.05;5.60;;;;;;;13.71;100.00;100517.47;5109706;27;20047;-81
2021/10/20 00:30:28;;;;;;;5.82;5.32;;;;;;;13.66;100.00;100508.81;5098493;27;20046;-86
2021/10/20 00:32:55;;;;;;;6.43;5.00;;;;;;;13.61;100.00;100508.06;5093974;28;20052;-84
2021/10/20 00:35:21;;;;;;;5.50;5.00;;;;;;;13.57;100.00;100509.91;5074837;28;20072;-84
2021/10/20 00:37:48;;;;;;;6.70;4.97;;;;;;;13.57;99.74;100508.16;5082316;28;20039;-85
2021/10/20 00:40:15;;;;;;;6.47;5.50;;;;;;;13.59;99.27;100510.75;5078334;28;20036;-87
2021/10/20 00:42:44;;;;;;;6.00;5.00;;;;;;;13.64;99.48;100487.81;5080522;28;20047;-84
2021/10/20 00:45:12;;;;;;;8.02;4.60;;;;;;;13.65;98.83;100486.03;5092245;28;20078;-85
2021/10/20 00:47:40;;;;;;;6.40;4.47;;;;;;;13.75;97.72;100495.44;5081367;28;20231;-82
2021/10/20 00:50:14;;;;;;;4.95;4.50;;;;;;;13.73;97.74;100482.34;5093515;28;20436;-86
2021/10/20 00:52:42;;;;;;;5.60;4.07;;;;;;;13.80;96.56;100477.78;5082013;28;20738;-82
2021/10/20 00:55:11;;;;;;;8.45;4.75;;;;;;;13.86;95.43;100474.16;5067305;28;20045;-87
2021/10/20 00:57:39;;;;;;;6.15;4.38;;;;;;;13.92;94.96;100470.47;5065210;28;20130;-87
2021/10/20 01:00:09;;;;;;;4.55;4.00;;;;;;;14.03;94.08;100466.66;5099259;27;20040;-85
2021/10/20 01:02:39;;;;;;;5.18;4.32;;;;;;;14.17;92.78;100457.53;5083269;28;20090;-87
2021/10/20 01:05:06;;;;;;;5.60;4.47;;;;;;;14.26;92.27;100454.66;5065857;28;20056;-85
2021/10/20 01:07:33;;;;;;;3.92;3.58;;;;;;;14.20;92.46;100450.41;5066933;28;21666;-86
2021/10/20 01:09:59;;;;;;;6.88;5.10;;;;;;;14.18;91.91;100446.09;5084200;28;20040;-85
2021/10/20 01:12:27;;;;;;;4.90;3.92;;;;;;;14.18;92.35;100443.47;5066711;28;20143;-84
2021/10/20 01:14:54;;;;;;;6.30;4.72;;;;;;;14.12;93.02;100446.25;5084483;28;20079;-84
2021/10/20 01:17:21;;;;;;;5.22;4.57;;;;;;;14.05;93.05;100429.78;5100349;27;20047;-85
2021/10/20 01:19:49;;;;;;;5.07;4.57;;;;;;;14.02;93.02;100432.50;5089365;28;20038;-83
2021/10/20 01:22:16;;;;;;;6.95;5.13;;;;;;;14.04;92.70;100436.81;5102048;27;20043;-81
2021/10/20 01:24:42;;;;;;;6.72;4.95;;;;;;;14.11;91.81;100429.63;5115656;27;20043;-81
2021/10/20 01:27:09;;;;;;;5.47;3.92;;;;;;;14.12;91.63;100423.44;5084949;28;20060;-81
2021/10/20 01:29:36;;;;;;;5.00;4.50;;;;;;;14.12;91.31;100418.19;5088019;28;21280;-88
2021/10/20 01:32:06;;;;;;;5.22;4.72;;;;;;;14.14;91.43;100424.25;5096160;27;20131;-82
2021/10/20 01:34:35;;;;;;;7.78;4.90;;;;;;;14.11;91.75;100415.59;5112784;27;23354;-83
2021/10/20 01:37:06;;;;;;;5.18;4.68;;;;;;;14.00;92.19;100413.25;5086888;28;21898;-83
2021/10/20 01:39:34;;;;;;;5.03;4.28;;;;;;;13.92;92.74;100404.69;5081810;28;20044;-83
2021/10/20 01:42:01;;;;;;;7.13;4.50;;;;;;;13.82;93.11;100401.44;5095424;28;20122;-83
2021/10/20 01:44:27;;;;;;;7.28;5.18;;;;;;;13.77;93.53;100398.94;5080124;28;20586;-84
2021/10/20 01:46:54;;;;;;;4.95;3.92;;;;;;;13.76;93.48;100410.38;5081632;28;20069;-83
2021/10/20 01:49:21;;;;;;;6.57;4.47;;;;;;;13.69;93.98;100401.78;5098253;27;20039;-84
2021/10/20 01:51:48;;;;;;;5.43;4.93;;;;;;;13.65;94.05;100394.88;5104704;27;20438;-85
2021/10/20 01:54:15;;;;;;;6.97;4.53;;;;;;;13.66;94.07;100386.09;5118287;27;20053;-84
2021/10/20 01:56:43;;;;;;;4.70;4.20;;;;;;;13.66;93.68;100391.34;5100656;27;20071;-83
2021/10/20 01:59:13;;;;;;;5.53;4.78;;;;;;;13.66;93.50;100385.19;5102649;27;20047;-85
2021/10/20 02:01:39;;;;;;;4.65;4.18;;;;;;;13.61;93.63;100371.31;5101331;27;20035;-84
2021/10/20 02:04:15;;;;;;;7.82;4.10;;;;;;;13.60;93.38;100373.09;5102272;27;20051;-85
2021/10/20 02:06:44;;;;;;;4.95;4.45;;;;;;;13.58;93.61;100369.63;5101633;27;20054;-83
2021/10/20 02:09:14;;;;;;;4.70;4.05;;;;;;;13.55;93.69;100364.44;5132891;27;20913;-83
2021/10/20 02:11:44;;;;;;;5.13;3.65;;;;;;;13.62;93.35;100362.50;5117548;27;20047;-86
2021/10/20 02:14:13;;;;;;;6.13;3.95;;;;;;;13.64;93.06;100352.84;5104176;27;20081;-88
2021/10/20 02:16:41;;;;;;;3.85;3.50;;;;;;;13.62;92.81;100344.09;5118689;27;20159;-83
2021/10/20 02:19:08;;;;;;;5.63;4.40;;;;;;;13.60;93.13;100341.53;5104248;27;20417;-83
2021/10/20 02:21:35;;;;;;;6.88;4.30;;;;;;;13.55;93.34;100338.16;5105892;27;20046;-89
2021/10/20 02:24:01;;;;;;;5.70;4.32;;;;;;;13.54;93.14;100336.41;5119993;27;21387;-85
2021/10/20 02:26:28;;;;;;;4.40;4.00;;;;;;;13.50;93.30;100334.78;5106065;27;20091;-82
2021/10/20 02:28:54;;;;;;;4.68;4.25;;;;;;;13.48;93.19;100326.06;5105555;27;20591;-84
2021/10/20 02:31:21;;;;;;;5.15;4.65;;;;;;;13.49;93.07;100326.03;5097462;27;20058;-84
2021/10/20 02:33:48;;;;;;;5.80;3.88;;;;;;;13.48;93.15;100324.31;5101493;27;20035;-83
2021/10/20 02:36:15;;;;;;;4.40;4.00;;;;;;;13.49;93.08;100322.53;5091768;27;20069;-82
2021/10/20 02:38:41;;;;;;;6.60;4.60;;;;;;;13.43;93.03;100326.19;5086228;27;20043;-81
2021/10/20 02:41:08;;;;;;;5.07;4.53;;;;;;;13.36;93.72;100316.69;5104153;27;20036;-84
2021/10/20 02:43:36;;;;;;;10.60;5.15;;;;;;;13.33;93.90;100322.03;5103311;27;20050;-84
2021/10/20 02:46:03;;;;;;;5.15;4.30;;;;;;;13.31;93.88;100322.06;5078521;27;20130;-84
2021/10/20 02:48:31;;;;;;;5.75;4.75;;;;;;;13.28;94.23;100316.03;5105246;27;20055;-85
2021/10/20 02:51:02;;;;;;;5.45;4.95;;;;;;;13.24;94.16;100321.38;5083304;28;20110;-83
2021/10/20 02:53:28;;;;;;;4.10;3.70;;;;;;;13.22;94.50;100315.28;5065545;28;20440;-83
2021/10/20 02:55:55;;;;;;;5.20;4.70;;;;;;;13.24;94.52;100317.88;5081398;28;20076;-86
2021/10/20 02:58:24;;;;;;;6.53;4.43;;;;;;;13.19;94.27;100312.75;5072600;28;20075;-84
2021/10/20 03:00:53;;;;;;;5.25;3.78;;;;;;;13.15;94.53;100311.06;5086302;28;20561;-86
2021/10/20 03:03:20;;;;;;;6.68;4.60;;;;;;;13.10;94.84;100299.81;5092954;28;20059;-85
2021/10/20 03:05:47;;;;;;;5.82;4.97;;;;;;;13.11;94.84;100296.28;5066878;28;20509;-84
2021/10/20 03:08:13;;;;;;;5.15;3.97;;;;;;;13.07;94.92;100305.16;5083671;28;20056;-87
2021/10/20 03:10:41;;;;;;;6.50;4.50;;;;;;;13.08;95.19;100306.88;5065434;28;20779;-84
2021/10/20 03:13:09;;;;;;;5.18;4.68;;;;;;;13.03;94.85;100299.09;5064358;28;20055;-84
2021/10/20 03:15:35;;;;;;;4.18;3.72;;;;;;;12.94;95.31;100286.19;5078465;28;20064;-82
2021/10/20 03:18:04;;;;;;;4.65;4.25;;;;;;;12.93;95.53;100294.97;5082112;28;20055;-84
2021/10/20 03:20:31;;;;;;;5.00;4.22;;;;;;;12.93;95.64;100288.88;5080906;28;20040;-85
2021/10/20 03:22:59;;;;;;;4.57;4.18;;;;;;;12.90;95.70;100289.81;5097597;28;20452;-82
2021/10/20 03:25:27;;;;;;;5.50;4.47;;;;;;;12.87;95.66;100292.53;5065636;28;20706;-82
2021/10/20 03:27:54;;;;;;;7.47;4.38;;;;;;;12.87;95.66;100295.16;5061954;28;20462;-84
2021/10/20 03:30:24;;;;;;;5.22;4.72;;;;;;;12.82;95.84;100289.13;5065330;28;20117;-83
2021/10/20 03:32:52;;;;;;;4.78;4.38;;;;;;;12.80;96.03;100289.19;5088977;28;20127;-83
2021/10/20 03:35:19;;;;;;;4.70;4.30;;;;;;;12.74;96.20;100292.78;5067196;28;20055;-82
2021/10/20 03:37:46;;;;;;;4.43;4.03;;;;;;;12.72;96.35;100285.84;5061909;28;20506;-82
2021/10/20 03:40:13;;;;;;;5.25;4.75;;;;;;;12.67;96.61;100293.84;5078312;28;20418;-83
2021/10/20 03:42:41;;;;;;;4.65;4.18;;;;;;;12.70;96.80;100290.28;5064156;28;20437;-84
2021/10/20 03:45:08;;;;;;;4.50;4.10;;;;;;;12.71;96.28;100287.63;5079590;28;20135;-84
2021/10/20 03:47:35;;;;;;;4.88;4.32;;;;;;;12.69;96.14;100289.41;5095463;28;20036;-82
2021/10/20 03:50:05;;;;;;;4.50;4.10;;;;;;;12.65;96.30;100274.63;5104831;27;20055;-83
2021/10/20 03:52:32;;;;;;;4.28;3.97;;;;;;;12.58;96.81;100270.44;5118553;27;20047;-83
2021/10/20 03:54:59;;;;;;;4.47;3.88;;;;;;;12.52;97.09;100258.31;5098002;27;20520;-84
2021/10/20 03:57:26;;;;;;;6.15;3.95;;;;;;;12.48;97.32;100256.66;5095425;27;20106;-83
2021/10/20 03:59:52;;;;;;;5.90;4.00;;;;;;;12.47;97.31;100251.44;5100084;27;20055;-83
2021/10/20 04:02:19;;;;;;;4.70;4.30;;;;;;;12.43;97.36;100249.78;5116300;27;20070;-82
2021/10/20 04:04:45;;;;;;;5.07;4.20;;;;;;;12.40;97.44;100250.72;5113562;27;20055;-84
2021/10/20 04:07:12;;;;;;;6.50;4.72;;;;;;;12.40;97.54;100241.06;5097148;27;20036;-85
2021/10/20 04:09:39;;;;;;;4.80;4.40;;;;;;;12.36;97.23;100235.94;5107313;27;20051;-84
2021/10/20 04:12:06;;;;;;;4.55;4.10;;;;;;;12.32;97.61;100244.75;5102488;27;20084;-88
2021/10/20 04:14:33;;;;;;;4.93;4.53;;;;;;;12.31;97.78;100238.66;5118156;27;20107;-84
2021/10/20 04:16:59;;;;;;;5.28;4.55;;;;;;;12.24;97.90;100230.06;5117459;27;20043;-84
2021/10/20 04:19:26;;;;;;;4.18;3.67;;;;;;;12.21;98.01;100232.75;5097160;27;20138;-81
2021/10/20 04:21:54;;;;;;;5.22;4.68;;;;;;;12.21;98.05;100234.53;5100589;27;20077;-82
2021/10/20 04:24:20;;;;;;;5.03;3.63;;;;;;;12.17;98.09;100223.22;5099574;27;20047;-83
2021/10/20 04:26:47;;;;;;;5.03;3.97;;;;;;;12.16;98.24;100224.16;5099439;28;20051;-82
2021/10/20 04:29:14;;;;;;;4.10;3.30;;;;;;;12.18;97.85;100222.34;5104980;27;20394;-83
2021/10/20 04:31:41;;;;;;;5.60;3.58;;;;;;;12.22;97.68;100213.47;5101493;27;20070;-83
2021/10/20 04:34:07;;;;;;;3.85;3.50;;;;;;;12.20;97.40;100217.03;5097337;27;20108;-84
2021/10/20 04:36:34;;;;;;;4.13;3.72;;;;;;;12.15;97.59;100209.28;5120919;27;20043;-84
2021/10/20 04:39:01;;;;;;;4.18;3.50;;;;;;;12.08;97.82;100203.31;5119451;27;20039;-84
2021/10/20 04:41:28;;;;;;;4.03;3.72;;;;;;;12.09;98.13;100201.56;5120439;27;20675;-85
2021/10/20 04:43:55;;;;;;;5.55;3.75;;;;;;;12.16;98.05;100203.16;5116357;27;20689;-81
2021/10/20 04:46:21;;;;;;;5.43;3.70;;;;;;;12.27;96.87;100202.00;5104321;28;20057;-82
2021/10/20 04:48:49;;;;;;;5.05;3.70;;;;;;;12.35;96.46;100198.31;5113180;27;20454;-82
2021/10/20 04:51:15;;;;;;;5.13;3.40;;;;;;;12.44;95.67;100189.38;5103600;27;20532;-84
2021/10/20 04:53:45;;;;;;;4.30;3.60;;;;;;;12.57;94.34;100189.94;5100895;27;20040;-82
2021/10/20 04:56:11;;;;;;;4.20;3.47;;;;;;;12.68;93.73;100181.78;5098388;27;20059;-84
2021/10/20 04:58:39;;;;;;;5.00;3.83;;;;;;;12.77;92.94;100185.94;5109992;27;20051;-84
2021/10/20 05:01:06;;;;;;;3.65;3.35;;;;;;;12.82;92.82;100176.19;5113809;27;20093;-89
2021/10/20 05:03:32;;;;;;;5.07;3.83;;;;;;;12.84;92.16;100166.50;5117668;27;20052;-82
2021/10/20 05:05:59;;;;;;;5.60;3.70;;;;;;;12.87;92.23;100159.41;5109466;27;20035;-83
2021/10/20 05:08:26;;;;;;;4.45;3.75;;;;;;;12.93;90.45;100150.47;5111010;27;20113;-85
2021/10/20 05:10:56;;;;;;;4.65;4.07;;;;;;;13.05;89.93;100144.06;5116053;27;20442;-84
2021/10/20 05:13:23;;;;;;;3.65;3.00;;;;;;;13.18;88.71;100147.19;5121873;27;20091;-82
2021/10/20 05:15:50;;;;;;;6.82;3.70;;;;;;;13.24;88.53;100141.75;5085809;28;20122;-83
2021/10/20 05:18:17;;;;;;;5.07;3.88;;;;;;;13.26;88.50;100139.09;5113173;27;20505;-84
2021/10/20 05:20:47;;;;;;;3.83;3.42;;;;;;;13.30;87.68;100138.13;5117830;27;21565;-83
2021/10/20 05:23:14;;;;;;;4.95;3.60;;;;;;;13.35;86.98;100138.81;5095984;27;21306;-84
2021/10/20 05:25:40;;;;;;;5.00;3.47;;;;;;;13.49;85.88;100128.81;5101798;27;20043;-82
2021/10/20 05:28:07;;;;;;;4.13;3.65;;;;;;;13.52;85.93;100131.34;5100773;27;20055;-84
2021/10/20 05:30:35;;;;;;;6.82;3.45;;;;;;;13.56;85.46;100135.59;5103751;28;20089;-85
2021/10/20 05:33:02;;;;;;;4.40;3.50;;;;;;;13.67;84.63;100132.66;5118879;27;20506;-84
2021/10/20 05:35:28;;;;;;;3.83;3.50;;;;;;;13.75;84.48;100119.25;5096669;27;20928;-82
2021/10/20 05:37:55;;;;;;;3.60;3.30;;;;;;;13.78;84.23;100116.56;5101240;27;20040;-83
2021/10/20 05:40:25;;;;;;;5.07;4.03;;;;;;;13.83;83.05;100080.44;5114228;27;20051;-86
2021/10/20 05:42:52;;;;;;;5.30;4.32;;;;;;;13.99;81.52;100122.06;5099746;27;20058;-83
2021/10/20 05:45:19;;;;;;;5.75;3.65;;;;;;;14.03;82.08;100107.88;5107817;27;20051;-85
2021/10/20 05:47:46;;;;;;;5.00;3.88;;;;;;;14.02;81.22;100104.38;5111034;27;20055;-84
2021/10/20 05:50:14;;;;;;;5.28;4.00;;;;;;;14.06;81.62;100107.78;5095260;28;20066;-85
2021/10/20 05:52:41;;;;;;;8.27;4.72;;;;;;;14.02;81.83;100114.06;5072827;28;20043;-84
2021/10/20 05:55:08;;;;;;;5.72;4.13;;;;;;;14.00;81.54;100111.47;5084154;28;20075;-84
2021/10/20 05:57:39;;;;;;;6.72;4.38;;;;;;;13.97;81.92;100102.81;5093083;28;20819;-83
2021/10/20 06:00:11;;;;;;;8.68;4.57;;;;;;;13.97;81.06;100113.34;5096551;28;20090;-86
2021/10/20 06:02:38;;;;;;;10.88;4.40;;;;;;;13.98;81.58;100100.13;5083896;28;20052;-83
2021/10/20 06:05:05;;;;;;;4.85;4.28;;;;;;;14.05;80.61;100093.78;5082333;28;20052;-85
2021/10/20 06:07:32;;;;;;;5.05;4.00;;;;;;;14.11;80.29;100097.97;5096525;28;20059;-84
2021/10/20 06:09:59;;;;;;;4.10;3.70;;;;;;;14.12;80.51;100094.44;5093006;28;20074;-86
2021/10/20 06:12:25;;;;;;;3.92;3.53;;;;;;;14.06;81.00;100102.53;5078188;28;20048;-85
2021/10/20 06:14:54;;;;;;;6.63;4.25;;;;;;;14.00;81.30;100100.06;5075012;28;20055;-84
2021/10/20 06:17:21;;;;;;;4.00;3.28;;;;;;;13.95;81.68;100097.63;5079557;28;20413;-85
2021/10/20 06:19:48;;;;;;;4.40;4.00;;;;;;;13.94;81.56;100098.50;5094711;28;20032;-83
2021/10/20 06:22:16;;;;;;;4.70;4.20;;;;;;;13.90;81.93;100087.22;5082321;28;20037;-84
2021/10/20 06:24:43;;;;;;;3.78;3.15;;;;;;;13.89;81.76;100077.59;5081986;28;20068;-83
2021/10/20 06:27:11;;;;;;;4.38;3.80;;;;;;;13.92;81.66;100091.56;5094504;28;20028;-84
2021/10/20 06:29:38;;;;;;;8.82;4.47;;;;;;;13.95;81.92;100081.81;5079151;28;20044;-82
2021/10/20 06:32:05;;;;;;;7.00;4.00;;;;;;;13.97;81.46;100098.41;5080414;28;21318;-85
2021/10/20 06:34:32;;;;;;;4.10;3.75;;;;;;;13.98;81.39;100089.59;5079220;28;20046;-85
2021/10/20 06:36:58;;;;;;;5.95;3.85;;;;;;;14.00;81.34;100097.44;5063397;28;20048;-84
2021/10/20 06:39:25;;;;;;;4.78;3.80;;;;;;;14.02;81.36;100098.28;5060269;28;20044;-83
2021/10/20 06:41:52;;;;;;;4.45;4.07;;;;;;;14.07;81.08;100096.34;5080998;28;20059;-83
2021/10/20 06:44:19;;;;;;;5.38;4.10;;;;;;;14.13;80.34;100106.69;5064809;28;20044;-83
2021/10/20 06:46:50;;;;;;;7.90;4.40;;;;;;;14.18;80.21;100110.03;5063018;28;20045;-85
2021/10/20 06:49:17;;;;;;;4.60;3.92;;;;;;;14.18;80.25;100102.13;5067400;28;20051;-83
2021/10/20 06:51:44;;;;;;;5.45;4.07;;;;;;;14.19;80.32;100098.56;5081216;28;20152;-86
2021/10/20 06:54:17;;;;;;;4.63;4.22;;;;;;;14.18;79.94;100096.88;5085183;28;20047;-85
2021/10/20 06:56:50;;;;;;;7.72;4.45;;;;;;;14.19;80.12;100095.94;5087841;28;20443;-84
2021/10/20 06:59:17;;;;;;;5.60;4.38;;;;;;;14.20;80.34;100092.41;5083304;28;20035;-83
2021/10/20 07:01:44;;;;;;;5.93;4.50;;;;;;;14.21;80.44;100078.34;5104847;27;20076;-85
2021/10/20 07:04:12;;;;;;;5.03;4.20;;;;;;;14.27;80.13;100086.94;5097253;27;20453;-86
2021/10/20 07:06:40;;;;;;;5.72;3.53;;;;;;;14.33;79.82;100084.09;5115263;27;20093;-85
2021/10/20 07:09:07;;;;;;;6.10;4.22;;;;;;;14.37;79.29;100088.34;5119160;27;20054;-84
2021/10/20 07:11:36;;;;;;;5.05;4.53;;;;;;;14.39;79.11;100081.25;5106499;27;20505;-84
2021/10/20 07:14:02;;;;;;;9.30;3.60;;;;;;;14.39;79.31;100081.25;5108046;27;20049;-83
2021/10/20 07:16:31;;;;;;;4.47;3.33;;;;;;;14.39;79.41;100081.25;5099715;27;20050;-83
2021/10/20 07:18:58;;;;;;;10.10;4.55;;;;;;;14.37;79.59;100076.03;5099232;27;20042;-85
2021/10/20 07:21:25;;;;;;;8.38;6.25;;;;;;;14.36;79.47;100070.81;5086130;27;20385;-83
2021/10/20 07:23:54;;;;;;;9.07;6.18;;;;;;;14.37;79.74;100080.44;5088345;27;20067;-86
2021/10/20 07:26:22;;;;;;;6.55;5.20;;;;;;;14.39;79.44;100073.34;5103241;27;20138;-84
2021/10/20 07:28:50;;;;;;;9.88;5.88;;;;;;;14.45;78.98;100072.28;5087719;27;20135;-83
2021/10/20 07:31:19;;;;;;;11.98;4.78;;;;;;;14.50;78.84;100051.94;5107259;27;20035;-85
2021/10/20 07:33:46;;;;;;;6.03;4.43;;;;;;;14.57;78.70;100071.84;5109894;27;20070;-84
2021/10/20 07:36:13;;;;;;;9.45;5.35;;;;;;;14.65;78.21;100071.63;5121473;27;20421;-86
2021/10/20 07:38:40;;;;;;;6.53;4.82;;;;;;;14.71;78.15;100068.78;5122169;27;20039;-83
2021/10/20 07:41:07;;;;;;;5.85;4.68;;;;;;;14.76;77.00;100061.56;5107735;27;20513;-83
2021/10/20 07:43:34;;;;;;;5.57;4.50;;;;;;;14.79;76.41;100052.69;5122591;27;20091;-83
2021/10/20 07:46:01;;;;;;;11.35;5.13;;;;;;;14.82;76.64;100047.31;5104735;27;20056;-86
2021/10/20 07:48:27;;;;;;;10.55;6.55;;;;;;;14.84;77.09;100038.44;5120774;27;20049;-82
2021/10/20 07:50:54;;;;;;;5.80;4.30;;;;;;;14.83;77.03;100031.44;5111432;27;20047;-86
2021/10/20 07:53:22;;;;;;;5.93;4.57;;;;;;;14.85;76.67;100028.78;5126898;27;20114;-83
2021/10/20 07:55:49;;;;;;;7.38;4.50;;;;;;;14.88;76.48;100036.56;5110903;27;20477;-86
2021/10/20 07:58:16;;;;;;;8.18;4.60;;;;;;;14.90;76.24;100021.56;5116566;27;20054;-83
2021/10/20 08:00:43;;;;;;;5.15;4.20;;;;;;;14.95;76.40;100019.56;5121922;27;20047;-83
2021/10/20 08:03:10;;;;;;;5.15;4.70;;;;;;;14.98;76.11;100023.88;5104488;27;20039;-85
2021/10/20 08:05:36;;;;;;;5.57;4.03;;;;;;;14.97;76.32;100009.84;5117129;27;20133;-87
2021/10/20 08:08:06;;;;;;;5.47;4.00;;;;;;;14.96;76.43;100009.91;5108888;27;20097;-83
2021/10/20 08:10:33;;;;;;;6.63;4.75;;;;;;;14.97;76.43;100014.28;5131312;27;20064;-83
2021/10/20 08:13:00;;;;;;;3.92;3.55;;;;;;;14.96;76.05;99997.59;5122445;27;20070;-82
2021/10/20 08:15:28;;;;;;;5.45;3.95;;;;;;;14.98;76.08;99990.50;5128823;27;20055;-87
2021/10/20 08:17:56;;;;;;;3.58;3.25;;;;;;;15.00;75.64;99985.16;5098419;27;20051;-84
2021/10/20 08:20:27;;;;;;;4.25;3.85;;;;;;;15.02;75.45;99978.91;5120939;27;20130;-83
2021/10/20 08:22:54;;;;;;;3.95;3.47;;;;;;;15.06;74.60;99969.13;5117996;27;20046;-84
2021/10/20 08:25:21;;;;;;;8.05;4.20;;;;;;;15.11;74.37;99939.91;5121281;27;20059;-86
2021/10/20 08:27:47;;;;;;;4.85;3.42;;;;;;;15.13;73.53;99938.94;5133641;27;20043;-84
2021/10/20 08:30:18;;;;;;;4.35;3.95;;;;;;;15.18;73.74;99936.97;5099090;27;20042;-83
2021/10/20 08:32:52;;;;;;;4.95;3.65;;;;;;;15.21;73.63;99936.00;5106668;27;20126;-87
2021/10/20 08:35:19;;;;;;;;;;;;;;;15.21;72.79;99918.44;5119319;27;20129;-85
2021/10/20 08:37:56;;;;;;;6.75;3.92;;;;;;;15.22;72.61;99912.22;5104811;27;19923;-84
2021/10/20 08:40:41;;;;;;;5.13;4.05;;;;;;;15.24;72.67;99921.84;5102603;27;20533;-83
2021/10/20 08:43:08;;;;;;;7.32;4.20;;;;;;;15.21;72.56;99931.63;5117506;27;20043;-85
2021/10/20 08:45:35;;;;;;;6.13;4.30;;;;;;;15.20;72.33;99929.88;5100831;27;20539;-88
2021/10/20 08:48:02;;;;;;;6.32;3.95;;;;;;;15.25;72.37;99927.03;5101875;27;20038;-83
2021/10/20 08:50:33;;;;;;;4.38;3.40;;;;;;;15.36;71.57;99924.84;5098221;27;20050;-83
2021/10/20 08:53:00;;;;;;;3.97;3.63;;;;;;;15.44;71.64;99928.97;5100439;27;20062;-84
2021/10/20 08:55:27;;;;;;;4.65;3.53;;;;;;;15.48;71.02;99928.75;5096489;27;20400;-86
2021/10/20 08:58:01;;;;;;;4.63;3.42;;;;;;;15.50;70.95;99926.06;5098395;27;20051;-84
2021/10/20 09:00:28;;;;;;;4.50;4.00;;;;;;;15.53;70.81;99934.72;5114577;27;20054;-84
2021/10/20 09:02:55;;;;;;;4.13;3.50;;;;;;;15.54;71.21;99911.84;5113458;27;20419;-84
2021/10/20 09:05:27;;;;;;;3.88;3.30;;;;;;;15.58;70.82;99916.06;5115405;27;20046;-85
2021/10/20 09:07:56;;;;;;;5.93;3.65;;;;;;;15.64;70.13;99914.94;5114426;27;20047;-84
2021/10/20 09:10:31;;;;;;;4.70;3.20;;;;;;;15.71;70.32;99904.06;5103917;27;20159;-84
2021/10/20 09:13:00;;;;;;;3.47;3.10;;;;;;;15.76;70.58;99892.44;5100698;27;20108;-83
2021/10/20 09:15:31;;;;;;;5.65;3.90;;;;;;;15.81;70.19;99891.38;5101887;27;20050;-86
2021/10/20 09:18:03;;;;;;;4.25;3.10;;;;;;;15.88;69.56;99886.69;5103031;27;20110;-83
2021/10/20 09:20:42;;;;;;;3.65;3.35;;;;;;;15.98;69.71;99881.84;5112454;27;20051;-86
2021/10/20 09:23:20;;;;;;;4.60;3.47;;;;;;;16.12;68.67;99881.25;5098279;27;20127;-84
2021/10/20 09:25:57;;;;;;;3.05;2.53;;;;;;;16.25;68.76;99886.84;5104612;27;20050;-85
2021/10/20 09:28:37;;;;;;;5.93;3.38;;;;;;;16.41;68.33;99865.88;5102861;27;20129;-84
2021/10/20 09:31:07;;;;;;;3.17;2.90;;;;;;;16.46;67.93;99861.25;5115959;27;20043;-84
2021/10/20 09:33:40;;;;;;;5.22;3.15;;;;;;;16.50;67.02;99845.19;5115525;27;20039;-84
2021/10/20 09:36:13;;;;;;;5.55;3.95;;;;;;;16.48;67.64;99822.41;5103596;27;20107;-84
2021/10/20 09:38:45;;;;;;;;;;;;;;;16.49;67.62;99810.91;5114467;27;20070;-85
2021/10/20 09:41:13;;;;;;;3.85;3.55;;;;;;;16.48;68.01;99819.78;5118005;27;19922;-83
2021/10/20 09:43:52;;;;;;;6.55;3.92;;;;;;;16.47;67.92;99836.53;5113480;27;20097;-82
2021/10/20 09:46:33;;;;;;;4.57;3.50;;;;;;;16.37;68.14;99833.47;5114467;27;20039;-85
2021/10/20 09:49:20;;;;;;;6.55;3.03;;;;;;;16.30;69.23;99832.88;5099033;27;20525;-83
2021/10/20 09:51:48;;;;;;;3.72;3.13;;;;;;;16.25;69.76;99837.53;5067981;27;20491;-84
2021/10/20 09:54:36;;;;;;;4.90;3.75;;;;;;;16.17;69.35;99829.94;5080392;28;20173;-89
2021/10/20 09:57:04;;;;;;;3.58;3.28;;;;;;;16.17;69.94;99835.22;5098256;28;20112;-85
2021/10/20 09:59:32;;;;;;;5.55;3.28;;;;;;;16.34;69.68;99846.81;5094206;28;20065;-83
2021/10/20 10:02:00;;;;;;;5.43;3.55;;;;;;;16.63;69.19;99832.25;5093025;28;20974;-85
2021/10/20 10:04:27;;;;;;;4.05;3.75;;;;;;;16.87;67.73;99803.78;5092163;28;20834;-84
2021/10/20 10:06:54;;;;;;;3.65;3.35;;;;;;;16.96;67.66;99797.22;5078107;28;20457;-86
2021/10/20 10:09:21;;;;;;;4.53;3.00;;;;;;;17.20;67.04;99802.22;5095232;28;20047;-82
2021/10/20 10:11:53;;;;;;;4.80;2.75;;;;;;;17.47;66.35;99804.38;5078085;28;20498;-83
2021/10/20 10:14:25;;;;;;;3.40;3.13;;;;;;;17.59;65.97;99798.47;5081914;28;20048;-85
2021/10/20 10:16:59;;;;;;;4.50;3.58;;;;;;;17.62;65.71;99794.81;5077141;28;20056;-84
2021/10/20 10:19:32;;;;;;;4.20;2.97;;;;;;;17.61;65.67;99771.94;5077321;28;20138;-81
2021/10/20 10:21:59;;;;;;;6.93;3.22;;;;;;;17.58;65.86;99772.09;5083387;28;20050;-84
2021/10/20 10:24:36;;;;;;;4.18;3.40;;;;;;;17.57;65.45;99759.81;5076193;28;20134;-86
2021/10/20 10:27:12;;;;;;;3.90;2.50;;;;;;;17.55;65.88;99746.66;5094953;28;20047;-82
2021/10/20 10:30:03;;;;;;;5.55;3.20;;;;;;;17.48;66.17;99732.91;5099813;28;20092;-82
2021/10/20 10:32:34;;;;;;;3.55;2.95;;;;;;;17.43;66.50;99736.69;5079615;28;20032;-85
2021/10/20 10:35:08;;;;;;;4.65;2.92;;;;;;;17.37;67.13;99737.88;5076666;28;20059;-82
2021/10/20 10:37:38;;;;;;;;;;;;;;;17.33;67.55;99736.34;5078524;28;20113;-85
2021/10/20 10:40:31;;;;;;;9.13;4.22;;;;;;;17.30;68.12;99747.94;5081082;28;19924;-83
2021/10/20 10:43:06;;;;;;;8.60;4.40;;;;;;;17.33;68.19;99761.00;5094663;28;20028;-83
2021/10/20 10:45:34;;;;;;;4.43;2.92;;;;;;;17.38;68.35;99767.81;5096711;28;20044;-86
2021/10/20 10:48:08;;;;;;;5.47;2.70;;;;;;;17.44;68.15;99778.09;5104340;27;20054;-81
2021/10/20 10:50:53;;;;;;;4.22;3.45;;;;;;;17.44;68.27;99786.91;5097691;27;20069;-85
2021/10/20 10:53:38;;;;;;;11.93;3.22;;;;;;;17.39;68.68;99761.59;5101189;27;20493;-82
2021/10/20 10:56:09;;;;;;;4.78;3.63;;;;;;;17.40;68.66;99756.22;5104843;27;20464;-86
2021/10/20 10:58:56;;;;;;;6.28;3.28;;;;;;;17.43;69.11;99737.56;5103337;27;20050;-83
2021/10/20 11:01:45;;;;;;;7.07;3.95;;;;;;;17.60;68.25;99727.88;5115046;27;20035;-82
2021/10/20 11:04:35;;;;;;;4.22;2.92;;;;;;;17.79;67.67;99725.09;5119364;27;20118;-87
2021/10/20 11:07:04;;;;;;;4.93;3.42;;;;;;;17.99;67.25;99706.38;5116747;27;20053;-84
2021/10/20 11:09:34;;;;;;;3.78;3.28;;;;;;;18.03;66.61;99696.47;5104397;27;20051;-84
2021/10/20 11:12:04;;;;;;;2.78;2.38;;;;;;;18.09;66.61;99688.19;5119599;27;20126;-83
2021/10/20 11:14:32;;;;;;;3.42;3.08;;;;;;;18.15;66.39;99669.31;5116392;27;20072;-84
2021/10/20 11:17:13;;;;;;;4.88;3.17;;;;;;;18.16;66.01;99664.84;5073533;28;20047;-82
2021/10/20 11:19:40;;;;;;;4.80;3.20;;;;;;;18.22;66.41;99661.00;5098269;28;20075;-81
2021/10/20 11:22:07;;;;;;;3.55;3.25;;;;;;;18.30;66.16;99678.19;5082329;28;20470;-83
2021/10/20 11:24:44;;;;;;;4.65;2.92;;;;;;;18.34;65.99;99692.09;5086177;28;20111;-82
2021/10/20 11:27:11;;;;;;;6.53;3.95;;;;;;;18.20;66.33;99666.41;5087855;28;20177;-84
2021/10/20 11:29:44;;;;;;;5.43;3.22;;;;;;;18.13;66.79;99668.56;5101145;28;20047;-84
2021/10/20 11:32:13;;;;;;;3.58;3.28;;;;;;;18.06;67.09;99679.56;5080587;28;20039;-84
2021/10/20 11:34:43;;;;;;;8.40;3.30;;;;;;;17.98;67.53;99683.47;5112435;27;20494;-83